sensor_id;sensor_type;location;lat;lon;timestamp;pressure;altitude;pressure_sealevel;temperature;humidity
64889;BME280;51386;53.082;8.816;2023-07-13T00:01:06;101181.06;;;22.04;57.92
64889;BME280;51386;53.082;8.816;2023-07-13T00:03:33;101165.94;;;21.98;58.10
64889;BME280;51386;53.082;8.816;2023-07-13T00:06:02;101176.09;;;21.96;58.22
64889;BME280;51386;53.082;8.816;2023-07-13T00:08:31;101172.84;;;21.94;58.36
64889;BME280;51386;53.082;8.816;2023-07-13T00:11:00;101177.28;;;21.88;58.31
64889;BME280;51386;53.082;8.816;2023-07-13T00:13:27;101183.34;;;21.84;58.47
64889;BME280;51386;53.082;8.816;2023-07-13T00:15:58;101181.13;;;21.81;58.35
64889;BME280;51386;53.082;8.816;2023-07-13T00:18:25;101177.50;;;21.75;58.31
64889;BME280;51386;53.082;8.816;2023-07-13T00:20:52;101185.47;;;21.70;58.64
64889;BME280;51386;53.082;8.816;2023-07-13T00:23:19;101181.41;;;21.68;58.43
64889;BME280;51386;53.082;8.816;2023-07-13T00:25:46;101190.16;;;21.63;58.37
64889;BME280;51386;53.082;8.816;2023-07-13T00:28:13;101187.78;;;21.67;58.75
64889;BME280;51386;53.082;8.816;2023-07-13T00:30:40;101190.47;;;21.67;57.86
64889;BME280;51386;53.082;8.816;2023-07-13T00:33:08;101194.69;;;21.63;58.33
64889;BME280;51386;53.082;8.816;2023-07-13T00:35:44;101192.22;;;21.61;58.22
64889;BME280;51386;53.082;8.816;2023-07-13T00:38:11;101187.56;;;21.56;58.15
64889;BME280;51386;53.082;8.816;2023-07-13T00:40:38;101189.94;;;21.53;58.75
64889;BME280;51386;53.082;8.816;2023-07-13T00:43:12;101194.47;;;21.52;58.18
64889;BME280;51386;53.082;8.816;2023-07-13T00:46:18;101199.59;;;21.42;58.84
64889;BME280;51386;53.082;8.816;2023-07-13T00:48:49;101206.59;;;21.43;58.39
64889;BME280;51386;53.082;8.816;2023-07-13T00:51:23;101197.50;;;21.44;58.48
64889;BME280;51386;53.082;8.816;2023-07-13T00:53:56;101195.06;;;21.43;58.75
64889;BME280;51386;53.082;8.816;2023-07-13T00:56:26;101196.09;;;21.42;58.94
64889;BME280;51386;53.082;8.816;2023-07-13T00:58:54;101199.00;;;21.40;58.78
64889;BME280;51386;53.082;8.816;2023-07-13T01:01:21;101197.41;;;21.39;58.84
64889;BME280;51386;53.082;8.816;2023-07-13T01:03:49;101198.78;;;21.42;58.62
64889;BME280;51386;53.082;8.816;2023-07-13T01:06:17;101200.09;;;21.39;58.71
64889;BME280;51386;53.082;8.816;2023-07-13T01:08:44;101194.72;;;21.39;59.25
64889;BME280;51386;53.082;8.816;2023-07-13T01:11:11;101194.81;;;21.44;58.52
64889;BME280;51386;53.082;8.816;2023-07-13T01:13:38;101197.28;;;21.46;58.59
64889;BME280;51386;53.082;8.816;2023-07-13T01:16:19;101206.22;;;21.40;58.63
64889;BME280;51386;53.082;8.816;2023-07-13T01:18:50;101198.91;;;21.35;59.04
64889;BME280;51386;53.082;8.816;2023-07-13T01:21:18;101197.88;;;21.36;58.82
64889;BME280;51386;53.082;8.816;2023-07-13T01:23:45;101183.91;;;21.34;58.41
64889;BME280;51386;53.082;8.816;2023-07-13T01:26:12;101187.03;;;21.31;58.71
64889;BME280;51386;53.082;8.816;2023-07-13T01:28:40;101184.25;;;21.26;58.30
64889;BME280;51386;53.082;8.816;2023-07-13T01:31:07;101182.38;;;21.27;58.73
64889;BME280;51386;53.082;8.816;2023-07-13T01:33:37;101178.41;;;21.29;58.58
64889;BME280;51386;53.082;8.816;2023-07-13T01:36:05;101182.25;;;21.33;58.05
64889;BME280;51386;53.082;8.816;2023-07-13T01:38:34;101185.97;;;21.32;57.78
64889;BME280;51386;53.082;8.816;2023-07-13T01:41:02;101184.09;;;21.33;58.25
64889;BME280;51386;53.082;8.816;2023-07-13T01:43:30;101178.53;;;21.34;58.37
64889;BME280;51386;53.082;8.816;2023-07-13T01:45:57;101184.47;;;21.36;57.68
64889;BME280;51386;53.082;8.816;2023-07-13T01:48:43;101186.69;;;21.39;58.46
64889;BME280;51386;53.082;8.816;2023-07-13T01:51:10;101188.41;;;21.45;57.91
64889;BME280;51386;53.082;8.816;2023-07-13T01:53:39;101190.75;;;21.53;58.18
64889;BME280;51386;53.082;8.816;2023-07-13T01:56:06;101190.94;;;21.64;58.17
64889;BME280;51386;53.082;8.816;2023-07-13T01:58:33;101186.94;;;21.78;57.36
64889;BME280;51386;53.082;8.816;2023-07-13T02:00:59;101188.34;;;21.92;57.39
64889;BME280;51386;53.082;8.816;2023-07-13T02:03:26;101186.31;;;21.99;56.60
64889;BME280;51386;53.082;8.816;2023-07-13T02:05:53;101193.34;;;22.00;56.43
64889;BME280;51386;53.082;8.816;2023-07-13T02:08:20;101185.38;;;22.05;56.71
64889;BME280;51386;53.082;8.816;2023-07-13T02:10:49;101191.53;;;22.17;56.40
64889;BME280;51386;53.082;8.816;2023-07-13T02:13:15;101186.34;;;22.27;56.21
64889;BME280;51386;53.082;8.816;2023-07-13T02:15:42;101189.81;;;22.39;55.55
64889;BME280;51386;53.082;8.816;2023-07-13T02:18:09;101183.47;;;22.45;55.06
64889;BME280;51386;53.082;8.816;2023-07-13T02:20:36;101189.66;;;22.46;54.75
64889;BME280;51386;53.082;8.816;2023-07-13T02:23:03;101194.09;;;22.40;54.45
64889;BME280;51386;53.082;8.816;2023-07-13T02:25:33;101189.63;;;22.29;54.18
64889;BME280;51386;53.082;8.816;2023-07-13T02:28:02;101186.00;;;22.23;54.56
64889;BME280;51386;53.082;8.816;2023-07-13T02:30:30;101183.72;;;22.15;54.43
64889;BME280;51386;53.082;8.816;2023-07-13T02:32:57;101177.66;;;22.08;54.47
64889;BME280;51386;53.082;8.816;2023-07-13T02:35:24;101176.78;;;22.03;54.41
64889;BME280;51386;53.082;8.816;2023-07-13T02:37:52;101180.91;;;21.94;54.48
64889;BME280;51386;53.082;8.816;2023-07-13T02:40:19;101184.88;;;21.80;54.54
64889;BME280;51386;53.082;8.816;2023-07-13T02:42:46;101183.59;;;21.71;55.15
64889;BME280;51386;53.082;8.816;2023-07-13T02:45:15;101182.00;;;21.58;55.09
64889;BME280;51386;53.082;8.816;2023-07-13T02:47:42;101176.06;;;21.44;55.85
64889;BME280;51386;53.082;8.816;2023-07-13T02:50:09;101164.91;;;21.36;56.01
64889;BME280;51386;53.082;8.816;2023-07-13T02:52:36;101168.75;;;21.28;55.33
64889;BME280;51386;53.082;8.816;2023-07-13T02:55:04;101169.44;;;21.24;55.38
64889;BME280;51386;53.082;8.816;2023-07-13T02:57:31;101171.31;;;21.23;55.71
64889;BME280;51386;53.082;8.816;2023-07-13T02:59:59;101174.47;;;21.20;55.75
64889;BME280;51386;53.082;8.816;2023-07-13T03:02:28;101187.03;;;21.20;55.63
64889;BME280;51386;53.082;8.816;2023-07-13T03:04:55;101183.88;;;21.23;55.48
64889;BME280;51386;53.082;8.816;2023-07-13T03:07:22;101195.97;;;21.25;54.94
64889;BME280;51386;53.082;8.816;2023-07-13T03:09:54;101181.69;;;21.20;55.26
64889;BME280;51386;53.082;8.816;2023-07-13T03:12:21;101184.56;;;21.18;55.36
64889;BME280;51386;53.082;8.816;2023-07-13T03:14:48;101180.28;;;21.17;54.95
64889;BME280;51386;53.082;8.816;2023-07-13T03:17:15;101181.91;;;21.18;55.09
64889;BME280;51386;53.082;8.816;2023-07-13T03:19:43;101182.25;;;21.22;55.76
64889;BME280;51386;53.082;8.816;2023-07-13T03:22:11;101186.34;;;21.24;55.34
64889;BME280;51386;53.082;8.816;2023-07-13T03:24:38;101187.03;;;21.31;54.79
64889;BME280;51386;53.082;8.816;2023-07-13T03:27:07;101193.78;;;21.45;54.70
64889;BME280;51386;53.082;8.816;2023-07-13T03:29:34;101193.03;;;21.62;54.57
64889;BME280;51386;53.082;8.816;2023-07-13T03:32:02;101200.28;;;21.73;54.02
64889;BME280;51386;53.082;8.816;2023-07-13T03:34:29;101195.09;;;21.83;53.75
64889;BME280;51386;53.082;8.816;2023-07-13T03:36:57;101199.88;;;21.92;53.93
64889;BME280;51386;53.082;8.816;2023-07-13T03:39:24;101196.00;;;22.00;53.68
64889;BME280;51386;53.082;8.816;2023-07-13T03:41:51;101201.72;;;22.03;53.16
64889;BME280;51386;53.082;8.816;2023-07-13T03:44:18;101205.66;;;22.12;53.18
64889;BME280;51386;53.082;8.816;2023-07-13T03:46:46;101202.56;;;22.20;52.84
64889;BME280;51386;53.082;8.816;2023-07-13T03:49:13;101205.72;;;22.29;52.45
64889;BME280;51386;53.082;8.816;2023-07-13T03:51:39;101203.13;;;22.34;52.41
64889;BME280;51386;53.082;8.816;2023-07-13T03:54:08;101214.53;;;22.41;52.32
64889;BME280;51386;53.082;8.816;2023-07-13T03:56:35;101215.91;;;22.44;52.19
64889;BME280;51386;53.082;8.816;2023-07-13T03:59:02;101218.09;;;22.47;51.94
64889;BME280;51386;53.082;8.816;2023-07-13T04:01:29;101214.84;;;22.45;51.85
64889;BME280;51386;53.082;8.816;2023-07-13T04:03:56;101219.38;;;22.44;51.84
64889;BME280;51386;53.082;8.816;2023-07-13T04:06:26;101214.84;;;22.45;51.93
64889;BME280;51386;53.082;8.816;2023-07-13T04:08:57;101210.84;;;22.47;52.03
64889;BME280;51386;53.082;8.816;2023-07-13T04:11:29;101210.97;;;22.52;51.66
64889;BME280;51386;53.082;8.816;2023-07-13T04:13:56;101209.19;;;22.58;51.85
64889;BME280;51386;53.082;8.816;2023-07-13T04:16:24;101207.88;;;22.60;51.73
64889;BME280;51386;53.082;8.816;2023-07-13T04:18:52;101213.84;;;22.62;51.76
64889;BME280;51386;53.082;8.816;2023-07-13T04:21:27;101213.38;;;22.65;51.34
64889;BME280;51386;53.082;8.816;2023-07-13T04:23:54;101214.75;;;22.68;51.65
64889;BME280;51386;53.082;8.816;2023-07-13T04:26:22;101210.19;;;22.68;51.26
64889;BME280;51386;53.082;8.816;2023-07-13T04:28:51;101211.84;;;22.69;51.29
64889;BME280;51386;53.082;8.816;2023-07-13T04:31:18;101214.75;;;22.68;51.16
64889;BME280;51386;53.082;8.816;2023-07-13T04:33:46;101218.03;;;22.70;51.05
64889;BME280;51386;53.082;8.816;2023-07-13T04:36:15;101215.25;;;22.65;51.07
64889;BME280;51386;53.082;8.816;2023-07-13T04:38:42;101225.09;;;22.48;51.24
64889;BME280;51386;53.082;8.816;2023-07-13T04:41:10;101217.78;;;22.43;52.00
64889;BME280;51386;53.082;8.816;2023-07-13T04:43:37;101220.78;;;22.47;51.63
64889;BME280;51386;53.082;8.816;2023-07-13T04:46:08;101220.13;;;22.56;51.57
64889;BME280;51386;53.082;8.816;2023-07-13T04:48:37;101226.81;;;22.65;51.53
64889;BME280;51386;53.082;8.816;2023-07-13T04:51:05;101222.66;;;22.74;51.33
64889;BME280;51386;53.082;8.816;2023-07-13T04:53:33;101225.50;;;22.84;51.15
64889;BME280;51386;53.082;8.816;2023-07-13T04:56:01;101226.19;;;22.92;50.98
64889;BME280;51386;53.082;8.816;2023-07-13T04:58:28;101226.97;;;22.92;50.57
64889;BME280;51386;53.082;8.816;2023-07-13T05:01:00;101219.25;;;22.96;50.47
64889;BME280;51386;53.082;8.816;2023-07-13T05:03:29;101225.19;;;22.98;50.52
64889;BME280;51386;53.082;8.816;2023-07-13T05:05:59;101223.06;;;23.00;50.34
64889;BME280;51386;53.082;8.816;2023-07-13T05:08:27;101228.44;;;23.00;50.36
64889;BME280;51386;53.082;8.816;2023-07-13T05:10:54;101238.63;;;22.98;50.46
64889;BME280;51386;53.082;8.816;2023-07-13T05:13:21;101232.69;;;22.96;50.26
64889;BME280;51386;53.082;8.816;2023-07-13T05:15:56;101241.78;;;22.95;50.55
64889;BME280;51386;53.082;8.816;2023-07-13T05:18:24;101241.31;;;22.98;50.64
64889;BME280;51386;53.082;8.816;2023-07-13T05:21:02;101247.66;;;22.92;50.67
64889;BME280;51386;53.082;8.816;2023-07-13T05:23:30;101249.50;;;22.74;51.18
64889;BME280;51386;53.082;8.816;2023-07-13T05:25:58;101253.50;;;22.60;51.68
64889;BME280;51386;53.082;8.816;2023-07-13T05:28:25;101246.31;;;22.49;51.99
64889;BME280;51386;53.082;8.816;2023-07-13T05:30:54;101251.09;;;22.47;52.26
64889;BME280;51386;53.082;8.816;2023-07-13T05:33:22;101253.78;;;22.47;52.41
64889;BME280;51386;53.082;8.816;2023-07-13T05:35:49;101265.09;;;22.49;52.51
64889;BME280;51386;53.082;8.816;2023-07-13T05:38:17;101259.34;;;22.57;52.18
64889;BME280;51386;53.082;8.816;2023-07-13T05:40:45;101259.56;;;22.67;51.95
64889;BME280;51386;53.082;8.816;2023-07-13T05:43:13;101263.88;;;22.68;52.18
64889;BME280;51386;53.082;8.816;2023-07-13T05:45:41;101258.50;;;22.68;52.26
64889;BME280;51386;53.082;8.816;2023-07-13T05:48:08;101261.56;;;22.60;52.20
64889;BME280;51386;53.082;8.816;2023-07-13T05:50:35;101267.22;;;22.47;52.36
64889;BME280;51386;53.082;8.816;2023-07-13T05:53:02;101272.97;;;22.39;52.60
64889;BME280;51386;53.082;8.816;2023-07-13T05:55:31;101273.19;;;22.38;52.54
64889;BME280;51386;53.082;8.816;2023-07-13T05:58:00;101275.72;;;22.44;52.66
64889;BME280;51386;53.082;8.816;2023-07-13T06:00:27;101271.66;;;22.42;52.85
64889;BME280;51386;53.082;8.816;2023-07-13T06:02:56;101273.72;;;22.51;52.70
64889;BME280;51386;53.082;8.816;2023-07-13T06:05:23;101278.28;;;22.62;52.43
64889;BME280;51386;53.082;8.816;2023-07-13T06:07:50;101272.03;;;22.73;52.16
64889;BME280;51386;53.082;8.816;2023-07-13T06:10:17;101271.88;;;22.80;52.26
64889;BME280;51386;53.082;8.816;2023-07-13T06:12:46;101274.59;;;22.68;52.29
64889;BME280;51386;53.082;8.816;2023-07-13T06:15:13;101289.91;;;22.56;52.54
64889;BME280;51386;53.082;8.816;2023-07-13T06:17:43;101284.59;;;22.45;53.06
64889;BME280;51386;53.082;8.816;2023-07-13T06:20:10;101283.25;;;22.59;52.76
64889;BME280;51386;53.082;8.816;2023-07-13T06:22:37;101278.69;;;22.71;52.62
64889;BME280;51386;53.082;8.816;2023-07-13T06:25:06;101281.16;;;22.72;52.59
64889;BME280;51386;53.082;8.816;2023-07-13T06:27:33;101290.63;;;22.92;52.21
64889;BME280;51386;53.082;8.816;2023-07-13T06:30:01;101292.59;;;23.13;52.02
64889;BME280;51386;53.082;8.816;2023-07-13T06:32:28;101292.25;;;23.26;51.35
64889;BME280;51386;53.082;8.816;2023-07-13T06:34:55;101299.44;;;23.37;51.15
64889;BME280;51386;53.082;8.816;2023-07-13T06:37:22;101293.09;;;23.43;51.05
64889;BME280;51386;53.082;8.816;2023-07-13T06:39:49;101291.38;;;23.37;51.12
64889;BME280;51386;53.082;8.816;2023-07-13T06:42:17;101292.47;;;23.36;51.22
64889;BME280;51386;53.082;8.816;2023-07-13T06:44:44;101291.72;;;23.40;51.30
64889;BME280;51386;53.082;8.816;2023-07-13T06:47:12;101291.13;;;23.55;51.02
64889;BME280;51386;53.082;8.816;2023-07-13T06:49:39;101281.31;;;23.66;50.48
64889;BME280;51386;53.082;8.816;2023-07-13T06:52:06;101288.09;;;23.68;50.60
64889;BME280;51386;53.082;8.816;2023-07-13T06:54:33;101286.41;;;23.62;50.80
64889;BME280;51386;53.082;8.816;2023-07-13T06:57:02;101287.38;;;23.56;50.65
64889;BME280;51386;53.082;8.816;2023-07-13T06:59:28;101296.03;;;23.58;51.05
64889;BME280;51386;53.082;8.816;2023-07-13T07:01:55;101296.50;;;23.72;50.79
64889;BME280;51386;53.082;8.816;2023-07-13T07:04:24;101301.56;;;23.90;50.29
64889;BME280;51386;53.082;8.816;2023-07-13T07:06:51;101311.25;;;24.07;49.87
64889;BME280;51386;53.082;8.816;2023-07-13T07:09:18;101305.38;;;24.10;49.45
64889;BME280;51386;53.082;8.816;2023-07-13T07:11:45;101306.50;;;24.14;49.01
64889;BME280;51386;53.082;8.816;2023-07-13T07:14:28;101310.06;;;24.20;49.31
64889;BME280;51386;53.082;8.816;2023-07-13T07:16:55;101304.50;;;24.27;49.28
64889;BME280;51386;53.082;8.816;2023-07-13T07:19:24;101312.94;;;24.35;49.23
64889;BME280;51386;53.082;8.816;2023-07-13T07:21:51;101302.56;;;24.44;48.90
64889;BME280;51386;53.082;8.816;2023-07-13T07:24:18;101309.63;;;24.50;49.04
64889;BME280;51386;53.082;8.816;2023-07-13T07:26:45;101306.31;;;24.43;49.48
64889;BME280;51386;53.082;8.816;2023-07-13T07:29:14;101310.25;;;24.57;49.04
64889;BME280;51386;53.082;8.816;2023-07-13T07:31:44;101307.81;;;24.77;48.86
64889;BME280;51386;53.082;8.816;2023-07-13T07:34:14;101309.56;;;24.93;48.48
64889;BME280;51386;53.082;8.816;2023-07-13T07:36:43;101305.34;;;25.02;47.34
64889;BME280;51386;53.082;8.816;2023-07-13T07:39:13;101307.25;;;25.07;47.57
64889;BME280;51386;53.082;8.816;2023-07-13T07:41:40;101317.16;;;25.01;47.64
64889;BME280;51386;53.082;8.816;2023-07-13T07:44:10;101312.91;;;25.05;47.07
64889;BME280;51386;53.082;8.816;2023-07-13T07:46:39;101303.75;;;25.06;47.30
64889;BME280;51386;53.082;8.816;2023-07-13T07:49:08;101304.31;;;25.08;46.91
64889;BME280;51386;53.082;8.816;2023-07-13T07:51:35;101300.66;;;25.19;46.88
64889;BME280;51386;53.082;8.816;2023-07-13T07:54:03;101309.84;;;25.23;47.02
64889;BME280;51386;53.082;8.816;2023-07-13T07:56:31;101309.84;;;25.23;46.68
64889;BME280;51386;53.082;8.816;2023-07-13T07:59:01;101306.38;;;25.28;46.87
64889;BME280;51386;53.082;8.816;2023-07-13T08:01:31;101306.03;;;25.19;45.92
64889;BME280;51386;53.082;8.816;2023-07-13T08:04:06;101304.41;;;25.18;46.10
64889;BME280;51386;53.082;8.816;2023-07-13T08:06:36;101310.91;;;24.91;47.03
64889;BME280;51386;53.082;8.816;2023-07-13T08:09:07;101312.31;;;24.98;47.04
64889;BME280;51386;53.082;8.816;2023-07-13T08:11:35;101320.09;;;24.95;46.73
64889;BME280;51386;53.082;8.816;2023-07-13T08:14:05;101322.16;;;25.14;46.12
64889;BME280;51386;53.082;8.816;2023-07-13T08:16:32;101319.63;;;25.34;45.67
64889;BME280;51386;53.082;8.816;2023-07-13T08:19:00;101326.34;;;25.64;45.48
64889;BME280;51386;53.082;8.816;2023-07-13T08:21:28;101311.16;;;25.94;44.43
64889;BME280;51386;53.082;8.816;2023-07-13T08:23:59;101314.94;;;26.60;44.25
64889;BME280;51386;53.082;8.816;2023-07-13T08:26:28;101315.03;;;27.06;42.99
64889;BME280;51386;53.082;8.816;2023-07-13T08:28:55;101321.00;;;27.18;42.48
64889;BME280;51386;53.082;8.816;2023-07-13T08:31:22;101316.13;;;27.25;42.16
64889;BME280;51386;53.082;8.816;2023-07-13T08:33:54;101323.72;;;27.58;41.92
64889;BME280;51386;53.082;8.816;2023-07-13T08:36:23;101316.72;;;28.41;40.37
64889;BME280;51386;53.082;8.816;2023-07-13T08:38:50;101311.16;;;29.44;39.42
64889;BME280;51386;53.082;8.816;2023-07-13T08:41:18;101307.84;;;30.23;36.80
64889;BME280;51386;53.082;8.816;2023-07-13T08:43:55;101315.25;;;30.41;36.40
64889;BME280;51386;53.082;8.816;2023-07-13T08:46:33;101310.50;;;30.70;35.66
64889;BME280;51386;53.082;8.816;2023-07-13T08:49:06;101303.09;;;31.40;34.26
64889;BME280;51386;53.082;8.816;2023-07-13T08:51:41;101305.38;;;32.47;33.36
64889;BME280;51386;53.082;8.816;2023-07-13T08:54:20;101303.13;;;33.82;31.97
64889;BME280;51386;53.082;8.816;2023-07-13T08:56:51;101303.31;;;34.94;29.45
64889;BME280;51386;53.082;8.816;2023-07-13T08:59:25;101306.13;;;35.40;29.30
64889;BME280;51386;53.082;8.816;2023-07-13T09:02:22;101299.91;;;35.77;26.00
64889;BME280;51386;53.082;8.816;2023-07-13T09:04:59;101300.44;;;35.16;28.53
64889;BME280;51386;53.082;8.816;2023-07-13T09:07:50;101312.16;;;35.16;28.49
64889;BME280;51386;53.082;8.816;2023-07-13T09:10:30;101310.88;;;34.97;27.81
64889;BME280;51386;53.082;8.816;2023-07-13T09:13:15;101310.22;;;35.17;27.99
64889;BME280;51386;53.082;8.816;2023-07-13T09:15:50;101311.34;;;35.79;26.79
64889;BME280;51386;53.082;8.816;2023-07-13T09:18:26;101308.56;;;35.33;26.61
64889;BME280;51386;53.082;8.816;2023-07-13T09:21:00;101313.97;;;34.87;27.42
64889;BME280;51386;53.082;8.816;2023-07-13T09:23:30;101314.25;;;34.51;27.23
64889;BME280;51386;53.082;8.816;2023-07-13T09:26:04;101315.53;;;34.88;27.73
64889;BME280;51386;53.082;8.816;2023-07-13T09:28:39;101307.78;;;35.24;27.31
64889;BME280;51386;53.082;8.816;2023-07-13T09:31:16;101317.00;;;35.74;26.35
64889;BME280;51386;53.082;8.816;2023-07-13T09:33:46;101313.53;;;36.24;25.02
64889;BME280;51386;53.082;8.816;2023-07-13T09:36:20;101315.03;;;36.42;25.11
64889;BME280;51386;53.082;8.816;2023-07-13T09:38:54;101321.19;;;36.18;24.75
64889;BME280;51386;53.082;8.816;2023-07-13T09:41:31;101323.28;;;36.42;24.13
64889;BME280;51386;53.082;8.816;2023-07-13T09:44:12;101311.44;;;36.50;24.74
64889;BME280;51386;53.082;8.816;2023-07-13T09:46:46;101319.69;;;36.21;24.91
64889;BME280;51386;53.082;8.816;2023-07-13T09:49:14;101312.88;;;35.60;25.44
64889;BME280;51386;53.082;8.816;2023-07-13T09:51:42;101309.03;;;35.52;25.63
64889;BME280;51386;53.082;8.816;2023-07-13T09:54:25;101305.13;;;35.99;25.58
64889;BME280;51386;53.082;8.816;2023-07-13T09:56:57;101298.78;;;36.78;23.81
64889;BME280;51386;53.082;8.816;2023-07-13T09:59:33;101303.94;;;36.80;23.81
64889;BME280;51386;53.082;8.816;2023-07-13T10:02:24;101309.06;;;35.81;25.01
64889;BME280;51386;53.082;8.816;2023-07-13T10:04:59;101327.09;;;35.36;25.00
64889;BME280;51386;53.082;8.816;2023-07-13T10:07:31;101311.34;;;35.24;25.36
64889;BME280;51386;53.082;8.816;2023-07-13T10:10:00;101304.94;;;34.78;25.13
64889;BME280;51386;53.082;8.816;2023-07-13T10:12:30;101307.88;;;34.08;25.99
64889;BME280;51386;53.082;8.816;2023-07-13T10:15:07;101316.00;;;33.29;26.88
64889;BME280;51386;53.082;8.816;2023-07-13T10:17:54;101311.41;;;32.94;27.38
64889;BME280;51386;53.082;8.816;2023-07-13T10:20:24;101310.34;;;32.81;27.57
64889;BME280;51386;53.082;8.816;2023-07-13T10:22:56;101308.47;;;32.68;27.71
64889;BME280;51386;53.082;8.816;2023-07-13T10:25:28;101312.47;;;32.35;28.51
64889;BME280;51386;53.082;8.816;2023-07-13T10:28:09;101308.63;;;31.81;29.28
64889;BME280;51386;53.082;8.816;2023-07-13T10:30:43;101323.13;;;31.31;29.13
64889;BME280;51386;53.082;8.816;2023-07-13T10:33:14;101319.66;;;30.74;29.92
64889;BME280;51386;53.082;8.816;2023-07-13T10:35:44;101322.28;;;30.00;31.36
64889;BME280;51386;53.082;8.816;2023-07-13T10:38:19;101331.66;;;29.84;31.81
64889;BME280;51386;53.082;8.816;2023-07-13T10:40:56;101341.41;;;29.90;32.19
64889;BME280;51386;53.082;8.816;2023-07-13T10:43:28;101337.09;;;29.84;32.33
64889;BME280;51386;53.082;8.816;2023-07-13T10:45:56;101360.72;;;29.55;32.64
64889;BME280;51386;53.082;8.816;2023-07-13T10:48:26;101362.94;;;29.19;34.52
64889;BME280;51386;53.082;8.816;2023-07-13T10:50:56;101358.59;;;28.74;34.26
64889;BME280;51386;53.082;8.816;2023-07-13T10:53:30;101358.72;;;28.39;35.80
64889;BME280;51386;53.082;8.816;2023-07-13T10:56:05;101367.47;;;28.21;36.60
64889;BME280;51386;53.082;8.816;2023-07-13T10:58:40;101369.31;;;28.30;37.24
64889;BME280;51386;53.082;8.816;2023-07-13T11:01:11;101370.88;;;28.46;38.10
64889;BME280;51386;53.082;8.816;2023-07-13T11:03:50;101371.16;;;28.50;37.37
64889;BME280;51386;53.082;8.816;2023-07-13T11:06:37;101364.13;;;28.39;36.96
64889;BME280;51386;53.082;8.816;2023-07-13T11:09:30;101380.72;;;28.17;36.87
64889;BME280;51386;53.082;8.816;2023-07-13T11:11:59;101381.03;;;27.95;37.29
64889;BME280;51386;53.082;8.816;2023-07-13T11:14:35;101393.53;;;27.71;37.85
64889;BME280;51386;53.082;8.816;2023-07-13T11:17:32;101388.38;;;27.39;38.44
64889;BME280;51386;53.082;8.816;2023-07-13T11:20:32;101395.63;;;27.14;39.10
64889;BME280;51386;53.082;8.816;2023-07-13T11:23:26;101399.09;;;26.89;38.79
64889;BME280;51386;53.082;8.816;2023-07-13T11:26:00;101407.91;;;26.74;39.01
64889;BME280;51386;53.082;8.816;2023-07-13T11:28:35;101398.13;;;26.53;39.81
64889;BME280;51386;53.082;8.816;2023-07-13T11:31:34;101400.47;;;26.35;40.40
64889;BME280;51386;53.082;8.816;2023-07-13T11:34:02;101406.63;;;26.25;40.23
64889;BME280;51386;53.082;8.816;2023-07-13T11:36:38;101407.03;;;26.07;40.40
64889;BME280;51386;53.082;8.816;2023-07-13T11:39:19;101417.75;;;25.97;41.23
64889;BME280;51386;53.082;8.816;2023-07-13T11:41:53;101413.91;;;25.88;41.15
64889;BME280;51386;53.082;8.816;2023-07-13T11:44:26;101420.88;;;25.79;41.77
64889;BME280;51386;53.082;8.816;2023-07-13T11:47:10;101425.09;;;25.65;41.15
64889;BME280;51386;53.082;8.816;2023-07-13T11:49:43;101430.88;;;25.51;41.45
64889;BME280;51386;53.082;8.816;2023-07-13T11:52:17;101432.66;;;25.41;41.11
64889;BME280;51386;53.082;8.816;2023-07-13T11:54:49;101439.28;;;25.28;41.51
64889;BME280;51386;53.082;8.816;2023-07-13T11:57:25;101444.81;;;25.17;41.75
64889;BME280;51386;53.082;8.816;2023-07-13T11:59:55;101455.47;;;25.07;42.13
64889;BME280;51386;53.082;8.816;2023-07-13T12:02:29;101461.50;;;24.92;41.67
64889;BME280;51386;53.082;8.816;2023-07-13T12:05:03;101472.56;;;24.74;42.71
64889;BME280;51386;53.082;8.816;2023-07-13T12:07:54;101476.47;;;24.45;43.97
64889;BME280;51386;53.082;8.816;2023-07-13T12:10:28;101484.91;;;24.32;44.60
64889;BME280;51386;53.082;8.816;2023-07-13T12:13:08;101492.25;;;24.19;45.97
64889;BME280;51386;53.082;8.816;2023-07-13T12:15:39;101493.63;;;24.05;46.18
64889;BME280;51386;53.082;8.816;2023-07-13T12:18:14;101479.66;;;23.92;46.37
64889;BME280;51386;53.082;8.816;2023-07-13T12:20:41;101487.63;;;23.87;47.34
64889;BME280;51386;53.082;8.816;2023-07-13T12:23:23;101494.81;;;23.81;47.13
64889;BME280;51386;53.082;8.816;2023-07-13T12:25:52;101504.59;;;23.87;47.45
64889;BME280;51386;53.082;8.816;2023-07-13T12:28:22;101511.94;;;23.92;47.04
64889;BME280;51386;53.082;8.816;2023-07-13T12:30:58;101504.69;;;23.92;46.80
64889;BME280;51386;53.082;8.816;2023-07-13T12:33:29;101493.34;;;23.90;46.27
64889;BME280;51386;53.082;8.816;2023-07-13T12:35:57;101493.34;;;23.90;46.08
64889;BME280;51386;53.082;8.816;2023-07-13T12:38:30;101497.59;;;23.86;46.68
64889;BME280;51386;53.082;8.816;2023-07-13T12:40:58;101498.38;;;23.70;47.53
64889;BME280;51386;53.082;8.816;2023-07-13T12:43:36;101501.78;;;23.66;47.74
64889;BME280;51386;53.082;8.816;2023-07-13T12:46:16;101500.88;;;23.32;48.25
64889;BME280;51386;53.082;8.816;2023-07-13T12:48:44;101502.91;;;23.25;48.63
64889;BME280;51386;53.082;8.816;2023-07-13T12:51:27;101499.41;;;23.24;49.01
64889;BME280;51386;53.082;8.816;2023-07-13T12:54:11;101501.47;;;23.34;48.71
64889;BME280;51386;53.082;8.816;2023-07-13T12:56:40;101500.34;;;23.58;48.13
64889;BME280;51386;53.082;8.816;2023-07-13T12:59:18;101496.69;;;23.81;47.58
64889;BME280;51386;53.082;8.816;2023-07-13T13:01:48;101490.28;;;23.98;46.85
64889;BME280;51386;53.082;8.816;2023-07-13T13:04:17;101499.00;;;24.05;46.85
64889;BME280;51386;53.082;8.816;2023-07-13T13:06:49;101492.56;;;24.23;46.17
64889;BME280;51386;53.082;8.816;2023-07-13T13:09:28;101494.81;;;24.48;45.45